sensor_id;sensor_type;location;lat;lon;timestamp;temperature;humidity
32187;DHT22;18686;53.084;8.872;2023-12-20T03:26:00;5.60;99.90
32187;DHT22;18686;53.084;8.872;2023-12-20T03:28:32;5.60;99.90
32187;DHT22;18686;53.084;8.872;2023-12-20T03:31:00;5.70;99.90
32187;DHT22;18686;53.084;8.872;2023-12-20T03:33:29;5.80;99.90
32187;DHT22;18686;53.084;8.872;2023-12-20T03:35:58;5.80;99.90
32187;DHT22;18686;53.084;8.872;2023-12-20T03:38:26;5.80;99.90
32187;DHT22;18686;53.084;8.872;2023-12-20T03:40:55;5.80;99.90
32187;DHT22;18686;53.084;8.872;2023-12-20T03:43:24;5.90;99.90
32187;DHT22;18686;53.084;8.872;2023-12-20T03:45:52;5.80;99.90
32187;DHT22;18686;53.084;8.872;2023-12-20T03:48:21;5.90;99.90
32187;DHT22;18686;53.084;8.872;2023-12-20T03:50:49;5.90;99.90
32187;DHT22;18686;53.084;8.872;2023-12-20T03:53:17;5.90;99.90
32187;DHT22;18686;53.084;8.872;2023-12-20T03:55:45;5.90;99.90
32187;DHT22;18686;53.084;8.872;2023-12-20T03:58:14;5.90;99.90
32187;DHT22;18686;53.084;8.872;2023-12-20T04:00:43;5.90;99.90
32187;DHT22;18686;53.084;8.872;2023-12-20T04:03:12;6.00;99.90
32187;DHT22;18686;53.084;8.872;2023-12-20T04:05:41;6.00;99.90
32187;DHT22;18686;53.084;8.872;2023-12-20T04:08:09;6.00;99.90
32187;DHT22;18686;53.084;8.872;2023-12-20T04:10:38;6.00;99.90
32187;DHT22;18686;53.084;8.872;2023-12-20T04:13:06;6.00;99.90
32187;DHT22;18686;53.084;8.872;2023-12-20T04:15:34;6.10;99.90
32187;DHT22;18686;53.084;8.872;2023-12-20T04:18:04;6.00;99.90
32187;DHT22;18686;53.084;8.872;2023-12-20T04:20:33;6.00;99.90
32187;DHT22;18686;53.084;8.872;2023-12-20T04:23:02;6.00;99.90
32187;DHT22;18686;53.084;8.872;2023-12-20T04:25:33;6.00;99.90
32187;DHT22;18686;53.084;8.872;2023-12-20T04:28:01;6.10;99.90
32187;DHT22;18686;53.084;8.872;2023-12-20T04:30:29;6.10;99.90
32187;DHT22;18686;53.084;8.872;2023-12-20T04:32:58;6.10;99.90
32187;DHT22;18686;53.084;8.872;2023-12-20T04:35:28;6.10;99.90
32187;DHT22;18686;53.084;8.872;2023-12-20T04:37:56;6.00;99.90
32187;DHT22;18686;53.084;8.872;2023-12-20T04:40:24;6.00;99.90
32187;DHT22;18686;53.084;8.872;2023-12-20T04:42:52;6.00;99.90
32187;DHT22;18686;53.084;8.872;2023-12-20T04:45:21;6.00;99.90
32187;DHT22;18686;53.084;8.872;2023-12-20T04:47:51;6.00;99.90
32187;DHT22;18686;53.084;8.872;2023-12-20T04:50:19;6.10;99.90
32187;DHT22;18686;53.084;8.872;2023-12-20T04:52:50;6.00;99.90
32187;DHT22;18686;53.084;8.872;2023-12-20T04:55:18;6.00;99.90
32187;DHT22;18686;53.084;8.872;2023-12-20T04:57:47;6.00;99.90
32187;DHT22;18686;53.084;8.872;2023-12-20T05:00:15;6.00;99.90
32187;DHT22;18686;53.084;8.872;2023-12-20T05:02:44;6.00;99.90
32187;DHT22;18686;53.084;8.872;2023-12-20T05:05:12;6.00;99.90
32187;DHT22;18686;53.084;8.872;2023-12-20T05:07:42;6.00;99.90
32187;DHT22;18686;53.084;8.872;2023-12-20T05:10:12;6.10;99.90
32187;DHT22;18686;53.084;8.872;2023-12-20T05:12:40;6.10;99.90
32187;DHT22;18686;53.084;8.872;2023-12-20T05:15:09;6.10;99.90
32187;DHT22;18686;53.084;8.872;2023-12-20T05:17:37;6.10;99.90
32187;DHT22;18686;53.084;8.872;2023-12-20T05:20:07;6.10;99.90
32187;DHT22;18686;53.084;8.872;2023-12-20T05:22:36;6.10;99.90
32187;DHT22;18686;53.084;8.872;2023-12-20T05:25:05;6.20;99.90
32187;DHT22;18686;53.084;8.872;2023-12-20T05:27:35;6.20;99.90
32187;DHT22;18686;53.084;8.872;2023-12-20T05:30:03;6.20;99.90
32187;DHT22;18686;53.084;8.872;2023-12-20T05:32:32;6.20;99.90
32187;DHT22;18686;53.084;8.872;2023-12-20T05:35:00;6.30;99.90
32187;DHT22;18686;53.084;8.872;2023-12-20T05:37:29;6.20;99.90
32187;DHT22;18686;53.084;8.872;2023-12-20T05:39:57;6.30;99.90
32187;DHT22;18686;53.084;8.872;2023-12-20T05:42:25;6.30;99.90
32187;DHT22;18686;53.084;8.872;2023-12-20T05:44:55;6.40;99.90
32187;DHT22;18686;53.084;8.872;2023-12-20T05:47:25;6.30;99.90
32187;DHT22;18686;53.084;8.872;2023-12-20T05:49:53;6.20;99.90
32187;DHT22;18686;53.084;8.872;2023-12-20T05:52:22;6.20;99.90
32187;DHT22;18686;53.084;8.872;2023-12-20T05:54:50;6.20;99.90
32187;DHT22;18686;53.084;8.872;2023-12-20T05:57:19;6.20;99.90
32187;DHT22;18686;53.084;8.872;2023-12-20T05:59:47;6.20;99.90
32187;DHT22;18686;53.084;8.872;2023-12-20T06:02:17;6.30;99.90
32187;DHT22;18686;53.084;8.872;2023-12-20T06:04:45;6.30;99.90
32187;DHT22;18686;53.084;8.872;2023-12-20T06:07:15;6.30;99.90
32187;DHT22;18686;53.084;8.872;2023-12-20T06:09:44;6.30;99.90
32187;DHT22;18686;53.084;8.872;2023-12-20T06:12:13;6.30;99.90
32187;DHT22;18686;53.084;8.872;2023-12-20T06:14:41;6.30;99.90
32187;DHT22;18686;53.084;8.872;2023-12-20T06:17:11;6.20;99.90
32187;DHT22;18686;53.084;8.872;2023-12-20T06:19:40;6.20;99.90
32187;DHT22;18686;53.084;8.872;2023-12-20T06:22:12;6.20;99.90
32187;DHT22;18686;53.084;8.872;2023-12-20T06:24:40;6.20;99.90
32187;DHT22;18686;53.084;8.872;2023-12-20T06:27:08;6.30;99.90
32187;DHT22;18686;53.084;8.872;2023-12-20T06:29:37;6.30;99.90
32187;DHT22;18686;53.084;8.872;2023-12-20T06:32:05;6.30;99.90
32187;DHT22;18686;53.084;8.872;2023-12-20T06:34:34;6.40;99.90
32187;DHT22;18686;53.084;8.872;2023-12-20T06:37:03;6.50;99.90
32187;DHT22;18686;53.084;8.872;2023-12-20T06:39:32;6.50;99.90
32187;DHT22;18686;53.084;8.872;2023-12-20T06:42:01;6.50;99.90
32187;DHT22;18686;53.084;8.872;2023-12-20T06:44:32;6.60;99.90
32187;DHT22;18686;53.084;8.872;2023-12-20T06:47:01;6.60;99.90
32187;DHT22;18686;53.084;8.872;2023-12-20T06:49:29;6.60;99.90
32187;DHT22;18686;53.084;8.872;2023-12-20T06:51:58;6.60;99.90
32187;DHT22;18686;53.084;8.872;2023-12-20T06:54:27;6.60;99.90
32187;DHT22;18686;53.084;8.872;2023-12-20T06:56:56;6.60;99.90
32187;DHT22;18686;53.084;8.872;2023-12-20T06:59:24;6.60;99.90
32187;DHT22;18686;53.084;8.872;2023-12-20T07:01:52;6.60;99.90
32187;DHT22;18686;53.084;8.872;2023-12-20T07:04:21;6.60;99.90
32187;DHT22;18686;53.084;8.872;2023-12-20T07:06:50;6.70;99.90
32187;DHT22;18686;53.084;8.872;2023-12-20T07:09:21;6.80;99.90
32187;DHT22;18686;53.084;8.872;2023-12-20T07:11:50;6.70;99.90
32187;DHT22;18686;53.084;8.872;2023-12-20T07:14:18;6.80;99.90
32187;DHT22;18686;53.084;8.872;2023-12-20T07:16:47;6.80;99.90
32187;DHT22;18686;53.084;8.872;2023-12-20T07:19:15;6.80;99.90
32187;DHT22;18686;53.084;8.872;2023-12-20T07:21:43;6.80;99.90
32187;DHT22;18686;53.084;8.872;2023-12-20T07:24:12;6.90;99.90
32187;DHT22;18686;53.084;8.872;2023-12-20T07:26:41;6.90;99.90
32187;DHT22;18686;53.084;8.872;2023-12-20T07:29:11;6.90;99.90
32187;DHT22;18686;53.084;8.872;2023-12-20T07:31:39;7.00;99.90
32187;DHT22;18686;53.084;8.872;2023-12-20T07:34:09;6.90;99.90
32187;DHT22;18686;53.084;8.872;2023-12-20T07:36:37;6.90;99.90
32187;DHT22;18686;53.084;8.872;2023-12-20T07:39:06;7.00;99.90
32187;DHT22;18686;53.084;8.872;2023-12-20T07:41:34;7.00;99.90
32187;DHT22;18686;53.084;8.872;2023-12-20T07:44:04;7.00;99.90
32187;DHT22;18686;53.084;8.872;2023-12-20T07:46:34;7.10;99.90
32187;DHT22;18686;53.084;8.872;2023-12-20T07:49:05;7.00;99.90
32187;DHT22;18686;53.084;8.872;2023-12-20T07:51:33;7.10;99.90
32187;DHT22;18686;53.084;8.872;2023-12-20T07:54:02;7.10;99.90
32187;DHT22;18686;53.084;8.872;2023-12-20T07:56:31;7.10;99.90
32187;DHT22;18686;53.084;8.872;2023-12-20T07:59:01;7.20;99.90
32187;DHT22;18686;53.084;8.872;2023-12-20T08:01:30;7.10;99.90
32187;DHT22;18686;53.084;8.872;2023-12-20T08:04:01;7.20;99.90
32187;DHT22;18686;53.084;8.872;2023-12-20T08:06:30;7.20;99.90
32187;DHT22;18686;53.084;8.872;2023-12-20T08:08:58;7.10;99.90
32187;DHT22;18686;53.084;8.872;2023-12-20T08:11:32;7.10;99.90
32187;DHT22;18686;53.084;8.872;2023-12-20T08:14:01;7.10;99.90
32187;DHT22;18686;53.084;8.872;2023-12-20T08:16:29;7.10;99.90
32187;DHT22;18686;53.084;8.872;2023-12-20T08:18:57;7.10;99.90
32187;DHT22;18686;53.084;8.872;2023-12-20T08:21:27;7.10;99.90
32187;DHT22;18686;53.084;8.872;2023-12-20T08:23:55;7.10;99.90
32187;DHT22;18686;53.084;8.872;2023-12-20T08:26:24;7.10;99.90
32187;DHT22;18686;53.084;8.872;2023-12-20T08:28:52;7.10;99.90
32187;DHT22;18686;53.084;8.872;2023-12-20T08:31:22;7.10;99.90
32187;DHT22;18686;53.084;8.872;2023-12-20T08:33:51;7.10;99.90
32187;DHT22;18686;53.084;8.872;2023-12-20T08:36:20;7.10;99.90
32187;DHT22;18686;53.084;8.872;2023-12-20T08:38:51;7.20;99.90
32187;DHT22;18686;53.084;8.872;2023-12-20T08:41:20;7.20;99.90
32187;DHT22;18686;53.084;8.872;2023-12-20T08:43:48;7.30;99.90
32187;DHT22;18686;53.084;8.872;2023-12-20T08:46:16;7.40;99.90
32187;DHT22;18686;53.084;8.872;2023-12-20T08:48:45;7.40;99.90
32187;DHT22;18686;53.084;8.872;2023-12-20T08:51:13;7.30;99.90
32187;DHT22;18686;53.084;8.872;2023-12-20T08:53:42;7.40;99.90
32187;DHT22;18686;53.084;8.872;2023-12-20T08:56:13;7.40;99.90
32187;DHT22;18686;53.084;8.872;2023-12-20T08:58:42;7.40;99.90
32187;DHT22;18686;53.084;8.872;2023-12-20T09:01:10;7.50;99.90
32187;DHT22;18686;53.084;8.872;2023-12-20T09:03:39;7.50;99.90
32187;DHT22;18686;53.084;8.872;2023-12-20T09:06:07;7.50;99.90
32187;DHT22;18686;53.084;8.872;2023-12-20T09:08:36;7.50;99.90
32187;DHT22;18686;53.084;8.872;2023-12-20T09:11:04;7.50;99.90
32187;DHT22;18686;53.084;8.872;2023-12-20T09:13:34;7.40;99.90
32187;DHT22;18686;53.084;8.872;2023-12-20T09:16:03;7.50;99.90
32187;DHT22;18686;53.084;8.872;2023-12-20T09:18:31;7.50;99.90
32187;DHT22;18686;53.084;8.872;2023-12-20T09:21:00;7.50;99.90
32187;DHT22;18686;53.084;8.872;2023-12-20T09:23:29;7.50;99.90
32187;DHT22;18686;53.084;8.872;2023-12-20T09:25:57;7.40;99.90
32187;DHT22;18686;53.084;8.872;2023-12-20T09:28:25;7.40;99.90
32187;DHT22;18686;53.084;8.872;2023-12-20T09:30:55;7.40;99.90
32187;DHT22;18686;53.084;8.872;2023-12-20T09:33:24;7.50;99.90
32187;DHT22;18686;53.084;8.872;2023-12-20T09:35:53;7.40;99.90
32187;DHT22;18686;53.084;8.872;2023-12-20T09:38:21;7.40;99.90
32187;DHT22;18686;53.084;8.872;2023-12-20T09:40:50;7.40;99.90
32187;DHT22;18686;53.084;8.872;2023-12-20T09:43:20;7.40;99.90
32187;DHT22;18686;53.084;8.872;2023-12-20T09:45:48;7.30;99.90
32187;DHT22;18686;53.084;8.872;2023-12-20T09:48:23;7.30;99.90
32187;DHT22;18686;53.084;8.872;2023-12-20T09:50:52;7.30;99.90
32187;DHT22;18686;53.084;8.872;2023-12-20T09:53:21;7.30;99.90
32187;DHT22;18686;53.084;8.872;2023-12-20T09:55:58;7.30;99.90
32187;DHT22;18686;53.084;8.872;2023-12-20T09:58:27;7.20;99.90
32187;DHT22;18686;53.084;8.872;2023-12-20T10:00:56;7.10;99.90
32187;DHT22;18686;53.084;8.872;2023-12-20T10:03:26;7.00;99.90
32187;DHT22;18686;53.084;8.872;2023-12-20T10:05:56;6.90;99.90
32187;DHT22;18686;53.084;8.872;2023-12-20T10:08:25;6.80;99.90
32187;DHT22;18686;53.084;8.872;2023-12-20T10:10:54;6.70;99.90
32187;DHT22;18686;53.084;8.872;2023-12-20T10:13:25;6.60;99.90
32187;DHT22;18686;53.084;8.872;2023-12-20T10:15:55;6.60;99.90
32187;DHT22;18686;53.084;8.872;2023-12-20T10:18:26;6.60;99.90
32187;DHT22;18686;53.084;8.872;2023-12-20T10:21:06;6.60;99.90
32187;DHT22;18686;53.084;8.872;2023-12-20T10:23:34;6.60;99.90
32187;DHT22;18686;53.084;8.872;2023-12-20T10:26:02;6.50;99.90
32187;DHT22;18686;53.084;8.872;2023-12-20T10:28:33;6.50;99.90
32187;DHT22;18686;53.084;8.872;2023-12-20T10:31:02;6.50;99.90
32187;DHT22;18686;53.084;8.872;2023-12-20T10:33:32;6.50;99.90
32187;DHT22;18686;53.084;8.872;2023-12-20T10:36:01;6.50;99.90
32187;DHT22;18686;53.084;8.872;2023-12-20T10:38:30;6.50;99.90
32187;DHT22;18686;53.084;8.872;2023-12-20T10:40:59;6.50;99.90
32187;DHT22;18686;53.084;8.872;2023-12-20T10:43:30;6.50;99.90
32187;DHT22;18686;53.084;8.872;2023-12-20T10:46:00;6.50;99.90
32187;DHT22;18686;53.084;8.872;2023-12-20T10:48:32;6.60;99.90
32187;DHT22;18686;53.084;8.872;2023-12-20T10:51:04;6.70;99.90
32187;DHT22;18686;53.084;8.872;2023-12-20T10:53:33;6.90;99.90
32187;DHT22;18686;53.084;8.872;2023-12-20T10:56:04;7.00;99.90
32187;DHT22;18686;53.084;8.872;2023-12-20T10:58:34;7.10;99.90
32187;DHT22;18686;53.084;8.872;2023-12-20T11:01:04;7.10;99.90
32187;DHT22;18686;53.084;8.872;2023-12-20T11:03:36;7.40;99.90
32187;DHT22;18686;53.084;8.872;2023-12-20T11:06:10;7.60;99.90
32187;DHT22;18686;53.084;8.872;2023-12-20T11:08:47;8.50;99.90
32187;DHT22;18686;53.084;8.872;2023-12-20T11:11:22;10.10;99.90
32187;DHT22;18686;53.084;8.872;2023-12-20T11:13:57;11.40;99.90
32187;DHT22;18686;53.084;8.872;2023-12-20T11:16:27;12.50;99.90
32187;DHT22;18686;53.084;8.872;2023-12-20T11:19:11;13.50;99.90
32187;DHT22;18686;53.084;8.872;2023-12-20T11:21:42;14.20;99.90
32187;DHT22;18686;53.084;8.872;2023-12-20T11:24:10;15.10;99.90
32187;DHT22;18686;53.084;8.872;2023-12-20T11:26:47;16.00;99.90
32187;DHT22;18686;53.084;8.872;2023-12-20T11:29:35;16.20;99.90
32187;DHT22;18686;53.084;8.872;2023-12-20T11:32:27;16.70;99.90
32187;DHT22;18686;53.084;8.872;2023-12-20T11:34:59;17.10;99.90
32187;DHT22;18686;53.084;8.872;2023-12-20T11:37:29;17.10;99.90
32187;DHT22;18686;53.084;8.872;2023-12-20T11:40:01;17.10;99.90
32187;DHT22;18686;53.084;8.872;2023-12-20T11:42:33;17.30;99.90
32187;DHT22;18686;53.084;8.872;2023-12-20T11:45:02;17.40;99.90
32187;DHT22;18686;53.084;8.872;2023-12-20T11:47:32;17.50;99.90
32187;DHT22;18686;53.084;8.872;2023-12-20T11:50:01;17.90;99.90
32187;DHT22;18686;53.084;8.872;2023-12-20T11:52:32;18.10;99.90
32187;DHT22;18686;53.084;8.872;2023-12-20T11:55:00;18.40;99.90
32187;DHT22;18686;53.084;8.872;2023-12-20T11:57:28;18.70;99.90
32187;DHT22;18686;53.084;8.872;2023-12-20T11:59:57;18.80;99.90
32187;DHT22;18686;53.084;8.872;2023-12-20T12:02:25;18.00;99.90
32187;DHT22;18686;53.084;8.872;2023-12-20T12:04:54;17.40;99.90
32187;DHT22;18686;53.084;8.872;2023-12-20T12:07:25;17.30;99.90
32187;DHT22;18686;53.084;8.872;2023-12-20T12:09:53;17.20;99.90
32187;DHT22;18686;53.084;8.872;2023-12-20T12:12:22;16.80;99.90
32187;DHT22;18686;53.084;8.872;2023-12-20T12:14:52;16.80;99.90
32187;DHT22;18686;53.084;8.872;2023-12-20T12:17:21;17.10;99.90
32187;DHT22;18686;53.084;8.872;2023-12-20T12:19:50;17.50;99.90
32187;DHT22;18686;53.084;8.872;2023-12-20T12:22:18;17.70;99.90
32187;DHT22;18686;53.084;8.872;2023-12-20T12:24:48;16.90;99.90
32187;DHT22;18686;53.084;8.872;2023-12-20T12:27:17;15.40;99.90
32187;DHT22;18686;53.084;8.872;2023-12-20T12:30:00;14.30;99.90
32187;DHT22;18686;53.084;8.872;2023-12-20T12:32:29;13.20;99.90
32187;DHT22;18686;53.084;8.872;2023-12-20T12:34:58;12.50;99.90
32187;DHT22;18686;53.084;8.872;2023-12-20T12:37:26;11.90;99.90
32187;DHT22;18686;53.084;8.872;2023-12-20T12:39:57;11.40;99.90
32187;DHT22;18686;53.084;8.872;2023-12-20T12:42:25;11.10;99.90
32187;DHT22;18686;53.084;8.872;2023-12-20T12:44:55;10.90;99.90
32187;DHT22;18686;53.084;8.872;2023-12-20T12:47:24;10.70;99.90
32187;DHT22;18686;53.084;8.872;2023-12-20T12:49:53;10.90;99.90
32187;DHT22;18686;53.084;8.872;2023-12-20T12:52:21;11.20;99.90
32187;DHT22;18686;53.084;8.872;2023-12-20T12:54:50;11.90;99.90
32187;DHT22;18686;53.084;8.872;2023-12-20T12:57:20;12.80;99.90
32187;DHT22;18686;53.084;8.872;2023-12-20T12:59:49;13.60;99.90
32187;DHT22;18686;53.084;8.872;2023-12-20T13:02:17;13.80;99.90
32187;DHT22;18686;53.084;8.872;2023-12-20T13:04:45;13.40;99.90
32187;DHT22;18686;53.084;8.872;2023-12-20T13:07:14;12.80;99.90
32187;DHT22;18686;53.084;8.872;2023-12-20T13:09:42;12.20;99.90
32187;DHT22;18686;53.084;8.872;2023-12-20T13:12:11;11.50;99.90
32187;DHT22;18686;53.084;8.872;2023-12-20T13:14:40;11.10;99.90
32187;DHT22;18686;53.084;8.872;2023-12-20T13:17:09;10.80;99.90
32187;DHT22;18686;53.084;8.872;2023-12-20T13:19:37;10.70;99.90
32187;DHT22;18686;53.084;8.872;2023-12-20T13:22:07;10.70;99.90
32187;DHT22;18686;53.084;8.872;2023-12-20T13:24:35;10.70;99.90
32187;DHT22;18686;53.084;8.872;2023-12-20T13:27:04;11.10;99.90
32187;DHT22;18686;53.084;8.872;2023-12-20T13:29:34;11.70;99.90
32187;DHT22;18686;53.084;8.872;2023-12-20T13:32:07;12.00;99.90
32187;DHT22;18686;53.084;8.872;2023-12-20T13:34:38;12.20;99.90
32187;DHT22;18686;53.084;8.872;2023-12-20T13:37:06;12.00;99.90
32187;DHT22;18686;53.084;8.872;2023-12-20T13:39:35;11.70;99.90
32187;DHT22;18686;53.084;8.872;2023-12-20T13:42:03;11.30;99.90
32187;DHT22;18686;53.084;8.872;2023-12-20T13:44:32;10.90;99.90
32187;DHT22;18686;53.084;8.872;2023-12-20T13:47:01;10.60;99.90
32187;DHT22;18686;53.084;8.872;2023-12-20T13:49:31;10.20;99.90
32187;DHT22;18686;53.084;8.872;2023-12-20T13:52:01;9.80;99.90
32187;DHT22;18686;53.084;8.872;2023-12-20T13:54:31;9.50;99.90
32187;DHT22;18686;53.084;8.872;2023-12-20T13:56:59;9.30;99.90
32187;DHT22;18686;53.084;8.872;2023-12-20T13:59:42;9.10;99.90
32187;DHT22;18686;53.084;8.872;2023-12-20T14:02:10;8.90;99.90
32187;DHT22;18686;53.084;8.872;2023-12-20T14:04:40;8.70;99.90
32187;DHT22;18686;53.084;8.872;2023-12-20T14:07:10;8.50;99.90
32187;DHT22;18686;53.084;8.872;2023-12-20T14:09:39;8.30;99.90
32187;DHT22;18686;53.084;8.872;2023-12-20T14:12:13;8.10;99.90
32187;DHT22;18686;53.084;8.872;2023-12-20T14:14:41;8.00;99.90
32187;DHT22;18686;53.084;8.872;2023-12-20T14:17:12;7.90;99.90
32187;DHT22;18686;53.084;8.872;2023-12-20T14:19:41;7.90;99.90
32187;DHT22;18686;53.084;8.872;2023-12-20T14:22:10;7.80;99.90
32187;DHT22;18686;53.084;8.872;2023-12-20T14:24:39;7.80;99.90
32187;DHT22;18686;53.084;8.872;2023-12-20T14:27:07;7.70;99.90
32187;DHT22;18686;53.084;8.872;2023-12-20T14:29:36;7.70;99.90
32187;DHT22;18686;53.084;8.872;2023-12-20T14:32:05;7.60;99.90
32187;DHT22;18686;53.084;8.872;2023-12-20T14:34:33;7.60;99.90
32187;DHT22;18686;53.084;8.872;2023-12-20T14:37:03;7.50;99.90
32187;DHT22;18686;53.084;8.872;2023-12-20T14:39:32;7.50;99.90
32187;DHT22;18686;53.084;8.872;2023-12-20T14:42:00;7.40;99.90
32187;DHT22;18686;53.084;8.872;2023-12-20T14:44:29;7.30;99.90
32187;DHT22;18686;53.084;8.872;2023-12-20T14:46:57;7.30;99.90
32187;DHT22;18686;53.084;8.872;2023-12-20T14:49:25;7.20;99.90
32187;DHT22;18686;53.084;8.872;2023-12-20T14:51:54;7.20;99.90
32187;DHT22;18686;53.084;8.872;2023-12-20T14:54:24;7.20;99.90
32187;DHT22;18686;53.084;8.872;2023-12-20T14:56:52;7.20;99.90
32187;DHT22;18686;53.084;8.872;2023-12-20T14:59:20;7.20;99.90
32187;DHT22;18686;53.084;8.872;2023-12-20T15:01:49;7.20;99.90
32187;DHT22;18686;53.084;8.872;2023-12-20T15:04:19;7.10;99.90
32187;DHT22;18686;53.084;8.872;2023-12-20T15:06:52;7.10;99.90
32187;DHT22;18686;53.084;8.872;2023-12-20T15:09:21;7.10;99.90
32187;DHT22;18686;53.084;8.872;2023-12-20T15:11:50;7.10;99.90
32187;DHT22;18686;53.084;8.872;2023-12-20T15:14:19;7.10;99.90
32187;DHT22;18686;53.084;8.872;2023-12-20T15:16:47;7.10;99.90
32187;DHT22;18686;53.084;8.872;2023-12-20T15:19:16;7.00;99.90
32187;DHT22;18686;53.084;8.872;2023-12-20T15:21:44;7.00;99.90
32187;DHT22;18686;53.084;8.872;2023-12-20T15:24:14;7.00;99.90
32187;DHT22;18686;53.084;8.872;2023-12-20T15:26:45;7.00;99.90
32187;DHT22;18686;53.084;8.872;2023-12-20T15:29:15;7.00;99.90
32187;DHT22;18686;53.084;8.872;2023-12-20T15:31:44;7.00;99.90
32187;DHT22;18686;53.084;8.872;2023-12-20T15:34:13;7.00;99.90
32187;DHT22;18686;53.084;8.872;2023-12-20T15:36:42;7.00;99.90
32187;DHT22;18686;53.084;8.872;2023-12-20T15:39:11;7.00;99.90
32187;DHT22;18686;53.084;8.872;2023-12-20T15:41:41;7.00;99.90
32187;DHT22;18686;53.084;8.872;2023-12-20T15:44:09;7.10;99.90
32187;DHT22;18686;53.084;8.872;2023-12-20T15:46:39;7.10;99.90
32187;DHT22;18686;53.084;8.872;2023-12-20T15:49:08;7.10;99.90
32187;DHT22;18686;53.084;8.872;2023-12-20T15:51:38;7.10;99.90
32187;DHT22;18686;53.084;8.872;2023-12-20T15:54:06;7.20;99.90
32187;DHT22;18686;53.084;8.872;2023-12-20T15:56:35;7.10;99.90
32187;DHT22;18686;53.084;8.872;2023-12-20T15:59:04;7.10;99.90
32187;DHT22;18686;53.084;8.872;2023-12-20T16:01:33;7.10;99.90
32187;DHT22;18686;53.084;8.872;2023-12-20T16:04:04;7.00;99.90
32187;DHT22;18686;53.084;8.872;2023-12-20T16:06:33;7.10;99.90
32187;DHT22;18686;53.084;8.872;2023-12-20T16:09:03;7.10;99.90
32187;DHT22;18686;53.084;8.872;2023-12-20T16:11:31;7.00;99.90
32187;DHT22;18686;53.084;8.872;2023-12-20T16:14:00;7.00;99.90
32187;DHT22;18686;53.084;8.872;2023-12-20T16:16:28;7.00;99.90
32187;DHT22;18686;53.084;8.872;2023-12-20T16:18:56;7.00;99.90
32187;DHT22;18686;53.084;8.872;2023-12-20T16:21:26;6.90;99.90
32187;DHT22;18686;53.084;8.872;2023-12-20T16:23:55;7.00;99.90
32187;DHT22;18686;53.084;8.872;2023-12-20T16:26:23;6.90;99.90
32187;DHT22;18686;53.084;8.872;2023-12-20T16:28:52;6.90;99.90
32187;DHT22;18686;53.084;8.872;2023-12-20T16:31:21;6.90;99.90
32187;DHT22;18686;53.084;8.872;2023-12-20T16:33:49;6.90;99.90
32187;DHT22;18686;53.084;8.872;2023-12-20T16:36:18;6.90;99.90
32187;DHT22;18686;53.084;8.872;2023-12-20T16:38:48;6.80;99.90
32187;DHT22;18686;53.084;8.872;2023-12-20T16:41:16;6.80;99.90
32187;DHT22;18686;53.084;8.872;2023-12-20T16:43:47;6.80;99.90
32187;DHT22;18686;53.084;8.872;2023-12-20T16:46:16;6.70;99.90
32187;DHT22;18686;53.084;8.872;2023-12-20T16:48:44;6.70;99.90
32187;DHT22;18686;53.084;8.872;2023-12-20T16:51:12;6.70;99.90
32187;DHT22;18686;53.084;8.872;2023-12-20T16:53:41;6.70;99.90
32187;DHT22;18686;53.084;8.872;2023-12-20T16:56:11;6.70;99.90
32187;DHT22;18686;53.084;8.872;2023-12-20T16:58:39;6.70;99.90
32187;DHT22;18686;53.084;8.872;2023-12-20T17:01:08;6.60;99.90
32187;DHT22;18686;53.084;8.872;2023-12-20T17:03:37;6.60;99.90
32187;DHT22;18686;53.084;8.872;2023-12-20T17:06:08;6.60;99.90
32187;DHT22;18686;53.084;8.872;2023-12-20T17:08:36;6.70;99.90
32187;DHT22;18686;53.084;8.872;2023-12-20T17:11:04;6.60;99.90
32187;DHT22;18686;53.084;8.872;2023-12-20T17:13:34;6.50;99.90
32187;DHT22;18686;53.084;8.872;2023-12-20T17:16:03;6.50;99.90
32187;DHT22;18686;53.084;8.872;2023-12-20T17:18:32;6.50;99.90
32187;DHT22;18686;53.084;8.872;2023-12-20T17:21:02;6.40;99.90
32187;DHT22;18686;53.084;8.872;2023-12-20T17:23:30;6.40;99.90
32187;DHT22;18686;53.084;8.872;2023-12-20T17:25:59;6.40;99.90
32187;DHT22;18686;53.084;8.872;2023-12-20T17:28:27;6.30;99.90
32187;DHT22;18686;53.084;8.872;2023-12-20T17:30:57;6.30;99.90
32187;DHT22;18686;53.084;8.872;2023-12-20T17:33:27;6.30;99.90
32187;DHT22;18686;53.084;8.872;2023-12-20T17:35:55;6.30;99.90
32187;DHT22;18686;53.084;8.872;2023-12-20T17:38:24;6.30;99.90
32187;DHT22;18686;53.084;8.872;2023-12-20T17:40:52;6.30;99.90
32187;DHT22;18686;53.084;8.872;2023-12-20T17:43:21;6.30;99.90
32187;DHT22;18686;53.084;8.872;2023-12-20T17:45:49;6.30;99.90
32187;DHT22;18686;53.084;8.872;2023-12-20T17:48:19;6.30;99.90
32187;DHT22;18686;53.084;8.872;2023-12-20T17:50:50;6.30;99.90
32187;DHT22;18686;53.084;8.872;2023-12-20T17:53:18;6.30;99.90
32187;DHT22;18686;53.084;8.872;2023-12-20T17:55:47;6.30;99.90
32187;DHT22;18686;53.084;8.872;2023-12-20T17:58:15;6.30;99.90
32187;DHT22;18686;53.084;8.872;2023-12-20T18:00:47;6.30;99.90
32187;DHT22;18686;53.084;8.872;2023-12-20T18:03:15;6.30;99.90
32187;DHT22;18686;53.084;8.872;2023-12-20T18:05:45;6.30;99.90
32187;DHT22;18686;53.084;8.872;2023-12-20T18:08:14;6.20;99.90
32187;DHT22;18686;53.084;8.872;2023-12-20T18:10:42;6.20;99.90
32187;DHT22;18686;53.084;8.872;2023-12-20T18:13:10;6.20;99.90
32187;DHT22;18686;53.084;8.872;2023-12-20T18:15:39;6.20;99.90
32187;DHT22;18686;53.084;8.872;2023-12-20T18:18:08;6.20;99.90
32187;DHT22;18686;53.084;8.872;2023-12-20T18:20:38;6.10;99.90
32187;DHT22;18686;53.084;8.872;2023-12-20T18:23:09;6.10;99.90
32187;DHT22;18686;53.084;8.872;2023-12-20T18:25:39;6.10;99.90
32187;DHT22;18686;53.084;8.872;2023-12-20T18:28:07;6.10;99.90
32187;DHT22;18686;53.084;8.872;2023-12-20T18:30:36;6.10;99.90
32187;DHT22;18686;53.084;8.872;2023-12-20T18:33:04;6.10;99.90
32187;DHT22;18686;53.084;8.872;2023-12-20T18:35:32;6.10;99.90
32187;DHT22;18686;53.084;8.872;2023-12-20T18:38:03;6.00;99.90
32187;DHT22;18686;53.084;8.872;2023-12-20T18:40:33;6.00;99.90
32187;DHT22;18686;53.084;8.872;2023-12-20T18:43:01;6.00;99.90
32187;DHT22;18686;53.084;8.872;2023-12-20T18:45:30;6.00;99.90
32187;DHT22;18686;53.084;8.872;2023-12-20T18:47:59;6.00;99.90
32187;DHT22;18686;53.084;8.872;2023-12-20T18:50:27;5.90;99.90
32187;DHT22;18686;53.084;8.872;2023-12-20T18:52:56;6.00;99.90
32187;DHT22;18686;53.084;8.872;2023-12-20T18:55:24;6.00;99.90
32187;DHT22;18686;53.084;8.872;2023-12-20T18:57:54;5.90;99.90
32187;DHT22;18686;53.084;8.872;2023-12-20T19:00:23;5.90;99.90
32187;DHT22;18686;53.084;8.872;2023-12-20T19:02:53;5.90;99.90
32187;DHT22;18686;53.084;8.872;2023-12-20T19:05:22;5.90;99.90
32187;DHT22;18686;53.084;8.872;2023-12-20T19:07:54;5.90;99.90
32187;DHT22;18686;53.084;8.872;2023-12-20T19:10:22;5.90;99.90
32187;DHT22;18686;53.084;8.872;2023-12-20T19:12:53;6.00;99.90
32187;DHT22;18686;53.084;8.872;2023-12-20T19:15:22;6.00;99.90
32187;DHT22;18686;53.084;8.872;2023-12-20T19:17:50;5.90;99.90
32187;DHT22;18686;53.084;8.872;2023-12-20T19:20:20;5.90;99.90